Keasbey, New Jersey
Current Conditions -  °F | °C
As of 7:35 PM on Tuesday 25 Nov 2014 (Local Time) from KLDJ Reporting Station
Clear Clear  
Wind Chill: 54°   Ceiling: Unl
Heat Index: 54°   Visibility: 10mi
Dew Point: 33°   Wind: 5mph
Humidity: 46%   Direction: 270°W
Pressure: 30.1"   Gusts: NA
Location:  40.52°N, 74.31°W
Report Text: KLDJ 260035Z AUTO 27004KT 10SM CLR 12/01 A3010 RMK AO2 T01200007
Loading
Personal Weather Stations






























Interactive Weather Map New forecast layout! Learn more

10-Day Weather Forecast

Advertisements
Track Severe Weather on mobile